Aviation Digital Data Service (ADDS)

Output produced by TAFs form (1900 UTC 19 September 2017)
found at http://www.aviationweather.gov/adds/tafs/
 
Forecast for: RJOM (MATSUYAMA AIRPOR, JP)
Text: TAF RJOM 191706Z 1918/2100 12006KT 8000 FEW025
Forecast period: 1800 to 2300 UTC 19 September 2017
Forecast type: FROM: standard forecast or significant change
Winds: from the ESE (120 degrees) at 7 MPH (6 knots; 3.1 m/s)
Visibility: 5 miles (8 km)
Clouds: few clouds at 2500 feet AGL
Weather: no significant weather forecast for this period
Text: BECMG 1923/2001 24012KT
Forecast period: 2300 UTC 19 September 2017 to 1500 UTC 20 September 2017
Forecast type: BECOMING: Conditions expected to become as follows by 0100 UTC 20 September 2017
Winds: from the WSW (240 degrees) at 14 MPH (12 knots; 6.2 m/s)
Visibility: 5 miles (8 km)
Clouds: few clouds at 2500 feet AGL
Weather: no significant weather forecast for this period
Text: BECMG 2015/2018 36010KT
Forecast period: 1500 UTC 20 September 2017 to 0000 UTC 21 September 2017
Forecast type: BECOMING: Conditions expected to become as follows by 1800 UTC 20 September 2017
Winds: from the N (360 degrees) at 12 MPH (10 knots; 5.2 m/s)
Visibility: 5 miles (8 km)
Clouds: few clouds at 2500 feet AGL
Weather: no significant weather forecast for this period